createdAt,value
2022-12-24T00:55:21.596Z,3.50
2022-12-24T00:58:23.667Z,3.70
2022-12-24T01:00:59.195Z,3.70
2022-12-24T01:03:43.042Z,3.70
2022-12-24T01:06:22.080Z,3.80
2022-12-24T01:09:13.579Z,3.80
2022-12-24T01:12:02.720Z,4.00
2022-12-24T01:15:00.521Z,3.90
2022-12-24T01:17:36.743Z,3.90
2022-12-24T01:20:15.945Z,3.90
2022-12-24T01:22:56.605Z,4.00
2022-12-24T01:25:28.104Z,4.00
2022-12-24T01:27:59.428Z,3.90
2022-12-24T01:30:35.337Z,3.90
2022-12-24T01:33:15.693Z,4.00
2022-12-24T01:35:52.970Z,4.20
2022-12-24T01:38:27.682Z,4.40
2022-12-24T01:41:15.585Z,4.50
2022-12-24T01:44:03.094Z,4.50
2022-12-24T01:46:36.594Z,4.80
2022-12-24T01:49:22.365Z,4.60
2022-12-24T01:52:02.966Z,4.80
2022-12-24T01:54:41.711Z,4.90
2022-12-24T01:57:21.270Z,4.90
2022-12-24T01:59:56.049Z,5.10
2022-12-24T02:02:37.193Z,5.00
2022-12-24T02:05:18.699Z,5.10
2022-12-24T02:07:51.298Z,5.10
2022-12-24T02:10:22.840Z,5.10
2022-12-24T02:12:55.659Z,5.10
2022-12-24T02:15:27.033Z,5.20
2022-12-24T02:18:08.371Z,5.30
2022-12-24T02:21:18.950Z,5.30
2022-12-24T02:24:22.806Z,5.30
2022-12-24T02:27:15.307Z,5.20
2022-12-24T02:30:08.580Z,5.20
2022-12-24T02:32:48.258Z,5.10
2022-12-24T02:35:25.888Z,5.00
2022-12-24T02:38:00.984Z,4.80
2022-12-24T02:40:38.500Z,4.70
2022-12-24T02:43:16.593Z,4.80
2022-12-24T02:45:59.130Z,4.70
2022-12-24T02:48:33.793Z,4.60
2022-12-24T02:51:11.309Z,4.60
2022-12-24T02:53:43.588Z,4.80
2022-12-24T02:56:41.592Z,4.90
2022-12-24T02:59:26.886Z,4.90
2022-12-24T03:02:10.489Z,5.10
2022-12-24T03:04:56.025Z,5.40
2022-12-24T03:07:37.995Z,5.40
2022-12-24T03:10:20.069Z,5.40
2022-12-24T03:12:57.907Z,5.40
2022-12-24T03:15:31.410Z,5.50
2022-12-24T03:18:07.519Z,5.50
2022-12-24T03:20:43.874Z,5.20
2022-12-24T03:23:21.336Z,4.90
2022-12-24T03:25:55.423Z,4.70
2022-12-24T03:28:30.794Z,4.50
2022-12-24T03:31:08.260Z,4.20
2022-12-24T03:33:44.337Z,4.20
2022-12-24T03:36:19.488Z,4.10
2022-12-24T03:38:52.981Z,4.00
2022-12-24T03:41:24.231Z,4.00
2022-12-24T03:43:55.346Z,3.90
2022-12-24T03:46:29.048Z,3.80
2022-12-24T03:49:04.334Z,3.80
2022-12-24T03:51:44.810Z,3.60
2022-12-24T03:54:16.228Z,3.60
2022-12-24T03:56:51.597Z,3.50
2022-12-24T03:59:25.801Z,3.40
2022-12-24T04:01:57.283Z,3.30
2022-12-24T04:04:35.046Z,3.20
2022-12-24T04:07:09.649Z,3.20
2022-12-24T04:09:42.172Z,3.10
2022-12-24T04:12:13.146Z,3.10
2022-12-24T04:14:44.396Z,3.10
2022-12-24T04:17:16.087Z,3.00
2022-12-24T04:19:52.203Z,2.90
2022-12-24T04:22:31.218Z,2.90
2022-12-24T04:25:02.442Z,2.80
2022-12-24T04:27:36.309Z,2.70
2022-12-24T04:30:09.445Z,2.70
2022-12-24T04:32:42.280Z,2.70
2022-12-24T04:35:16.209Z,2.60
2022-12-24T04:37:47.760Z,2.60
2022-12-24T04:40:18.951Z,2.60
2022-12-24T04:42:52.873Z,2.50
2022-12-24T04:45:24.813Z,2.50
2022-12-24T04:47:58.360Z,2.50
2022-12-24T04:50:43.662Z,2.40
2022-12-24T04:53:18.895Z,2.40
2022-12-24T04:55:50.454Z,2.40
2022-12-24T04:58:26.354Z,2.40
2022-12-24T05:01:04.439Z,2.40
2022-12-24T05:03:36.812Z,2.40
2022-12-24T05:06:16.805Z,2.40
2022-12-24T05:08:50.936Z,2.40
2022-12-24T05:11:23.160Z,2.40
2022-12-24T05:13:57.259Z,2.40
2022-12-24T05:16:28.587Z,2.40
2022-12-24T05:19:02.631Z,2.30
2022-12-24T05:22:10.636Z,2.30
2022-12-24T05:24:59.912Z,2.30
2022-12-24T05:27:33.971Z,2.30
2022-12-24T05:30:05.470Z,2.30
2022-12-24T05:32:37.154Z,2.30
2022-12-24T05:35:12.988Z,2.30
2022-12-24T05:37:47.776Z,2.30
2022-12-24T05:40:24.832Z,2.30
2022-12-24T05:43:02.444Z,2.30
2022-12-24T05:45:38.780Z,2.30
2022-12-24T05:48:11.602Z,2.30
2022-12-24T05:50:47.199Z,2.30
2022-12-24T05:53:20.874Z,2.30
2022-12-24T05:55:58.163Z,2.30
2022-12-24T05:58:33.787Z,2.40
2022-12-24T06:01:06.221Z,2.30
2022-12-24T06:03:37.781Z,2.30
2022-12-24T06:06:12.200Z,2.30
2022-12-24T06:08:46.457Z,2.30
2022-12-24T06:11:20.149Z,2.40
2022-12-24T06:13:57.943Z,2.30
2022-12-24T06:16:31.111Z,2.30
2022-12-24T06:19:02.875Z,2.30
2022-12-24T06:21:34.406Z,2.30
2022-12-24T06:24:08.402Z,2.30
2022-12-24T06:26:40.140Z,2.20
2022-12-24T06:29:15.616Z,2.30
2022-12-24T06:31:46.832Z,2.30
2022-12-24T06:34:18.955Z,2.20
2022-12-24T06:36:53.276Z,2.20
2022-12-24T06:39:28.204Z,2.30
2022-12-24T06:41:59.433Z,2.20
2022-12-24T06:44:33.115Z,2.20
2022-12-24T06:47:04.857Z,2.20
2022-12-24T06:49:42.779Z,2.30
2022-12-24T06:52:14.239Z,2.20
2022-12-24T06:54:48.404Z,2.20
2022-12-24T06:57:21.458Z,2.20
2022-12-24T06:59:55.790Z,2.20
2022-12-24T07:02:32.942Z,2.20
2022-12-24T07:05:04.831Z,2.20
2022-12-24T07:07:36.438Z,2.20
2022-12-24T07:10:13.853Z,2.20
2022-12-24T07:12:45.112Z,2.30
2022-12-24T07:15:17.160Z,2.30
2022-12-24T07:17:50.216Z,2.30
2022-12-24T07:20:27.475Z,2.20
2022-12-24T07:22:58.978Z,2.30
2022-12-24T07:25:34.897Z,2.30
2022-12-24T07:28:06.333Z,2.20
2022-12-24T07:30:41.574Z,2.20
2022-12-24T07:33:21.109Z,2.30
2022-12-24T07:35:56.101Z,2.30
2022-12-24T07:38:27.572Z,2.30
2022-12-24T07:41:15.319Z,2.40
2022-12-24T07:43:46.667Z,2.40
2022-12-24T07:46:17.634Z,2.40
2022-12-24T07:48:48.799Z,2.40
2022-12-24T07:51:21.093Z,2.40
2022-12-24T07:53:53.474Z,2.40
2022-12-24T07:56:28.782Z,2.40
2022-12-24T07:58:59.650Z,2.40
2022-12-24T08:01:31.186Z,2.40
2022-12-24T08:04:02.543Z,2.50
2022-12-24T08:06:35.952Z,2.50
2022-12-24T08:09:07.357Z,2.40
2022-12-24T08:11:52.527Z,2.50
2022-12-24T08:14:24.173Z,2.50
2022-12-24T08:16:55.328Z,2.50
2022-12-24T08:19:27.206Z,2.60
2022-12-24T08:22:00.711Z,2.60
2022-12-24T08:24:34.445Z,2.60
2022-12-24T08:27:12.350Z,2.60
2022-12-24T08:29:43.949Z,2.60
2022-12-24T08:32:16.136Z,2.60
2022-12-24T08:34:51.489Z,2.60
2022-12-24T08:37:25.829Z,2.60
2022-12-24T08:39:56.933Z,2.60
